Time;durP1;ratioP1;P1;durP2;ratioP2;P2;SDS_P1;SDS_P2;PMS_P1;PMS_P2;Temp;Humidity;BMP_temperature;BMP_pressure;BME280_temperature;BME280_humidity;BME280_pressure;Samples;Min_cycle;Max_cycle;Signal;HPM_P1;HPM_P2
2022/04/28 00:01:25;;;;;;;3.50;2.17;;;;;;;;;;5069519;28;20031;-68
2022/04/28 00:03:51;;;;;;;2.13;1.90;;;;;;;;;;5075358;28;20064;-68
2022/04/28 00:06:16;;;;;;;1.92;1.70;;;;;;;;;;5080005;28;20091;-69
2022/04/28 00:08:42;;;;;;;1.98;1.67;;;;;;;;;;5079738;28;20453;-68
2022/04/28 00:11:11;;;;;;;1.70;1.60;;;;;;;;;;5080397;28;20028;-69
2022/04/28 00:13:36;;;;;;;1.40;1.30;;;;;;;;;;5078156;28;20638;-68
2022/04/28 00:16:02;;;;;;;1.52;1.42;;;;;;;;;;5072631;28;20134;-68
2022/04/28 00:18:27;;;;;;;2.88;1.20;;;;;;;;;;5079358;28;20474;-68
2022/04/28 00:20:53;;;;;;;1.63;1.13;;;;;;;;;;5074789;28;20164;-69
2022/04/28 00:23:18;;;;;;;2.40;1.08;;;;;;;;;;5074889;28;20052;-67
2022/04/28 00:25:43;;;;;;;1.55;0.98;;;;;;;;;;5080178;28;20060;-67
2022/04/28 00:28:08;;;;;;;1.85;0.82;;;;;;;;;;5079488;28;20132;-66
2022/04/28 00:30:34;;;;;;;1.08;0.98;;;;;;;;;;5080302;28;20016;-69
2022/04/28 00:32:59;;;;;;;1.58;1.00;;;;;;;;;;5080280;28;20034;-72
2022/04/28 00:35:25;;;;;;;1.30;0.80;;;;;;;;;;5078094;28;20112;-70
2022/04/28 00:37:50;;;;;;;2.08;0.70;;;;;;;;;;5079769;28;20027;-71
2022/04/28 00:40:15;;;;;;;0.77;0.77;;;;;;;;;;5079613;28;20038;-71
2022/04/28 00:42:41;;;;;;;0.50;0.50;;;;;;;;;;5079761;28;20432;-72
2022/04/28 00:45:06;;;;;;;0.52;0.50;;;;;;;;;;5077885;28;20143;-72
2022/04/28 00:53:00;;;;;;;0.60;0.60;;;;;;;;;;5079399;28;20921;-66
2022/04/28 00:55:27;;;;;;;1.98;0.60;;;;;;;;;;5079667;28;20031;-67
2022/04/28 00:57:52;;;;;;;1.52;0.60;;;;;;;;;;5079566;28;20008;-70
2022/04/28 01:00:17;;;;;;;1.40;0.40;;;;;;;;;;5077220;28;20032;-71
2022/04/28 01:02:43;;;;;;;0.82;0.63;;;;;;;;;;5069958;28;20173;-69
2022/04/28 01:05:09;;;;;;;0.50;0.50;;;;;;;;;;5061583;28;20054;-69
2022/04/28 01:07:35;;;;;;;0.52;0.47;;;;;;;;;;5080071;28;20024;-67
2022/04/28 01:10:00;;;;;;;0.30;0.30;;;;;;;;;;5079686;28;20135;-68
2022/04/28 01:12:26;;;;;;;1.20;0.47;;;;;;;;;;5079803;28;20416;-68
2022/04/28 01:14:51;;;;;;;1.00;0.93;;;;;;;;;;5070753;28;20440;-67
2022/04/28 01:17:16;;;;;;;0.82;0.73;;;;;;;;;;5067192;28;20024;-72
2022/04/28 01:19:42;;;;;;;0.93;0.50;;;;;;;;;;5066082;28;20024;-67
2022/04/28 01:22:08;;;;;;;0.60;0.60;;;;;;;;;;5067397;28;20028;-68
2022/04/28 01:24:33;;;;;;;0.47;0.47;;;;;;;;;;5078390;28;20039;-67
2022/04/28 01:26:59;;;;;;;0.95;0.73;;;;;;;;;;5078169;28;20028;-68
2022/04/28 01:29:25;;;;;;;1.65;0.90;;;;;;;;;;5079516;28;20012;-70
2022/04/28 01:31:50;;;;;;;1.45;0.70;;;;;;;;;;5079279;28;20792;-70
2022/04/28 01:34:15;;;;;;;0.40;0.30;;;;;;;;;;5077984;28;20031;-70
2022/04/28 01:36:41;;;;;;;0.40;0.40;;;;;;;;;;5078392;28;20039;-69
2022/04/28 01:39:07;;;;;;;1.20;0.50;;;;;;;;;;5076960;28;20084;-69
2022/04/28 01:41:33;;;;;;;1.05;0.43;;;;;;;;;;5068320;28;20024;-68
2022/04/28 01:43:59;;;;;;;1.98;0.70;;;;;;;;;;5074596;28;20405;-69
2022/04/28 01:46:24;;;;;;;0.30;0.30;;;;;;;;;;5073390;28;20028;-67
2022/04/28 01:48:49;;;;;;;0.47;0.40;;;;;;;;;;5078857;28;20119;-68
2022/04/28 01:56:43;;;;;;;1.75;0.50;;;;;;;;;;5075806;28;20036;-71
2022/04/28 01:59:08;;;;;;;2.58;0.98;;;;;;;;;;5065310;28;20067;-67
2022/04/28 02:01:34;;;;;;;2.05;0.80;;;;;;;;;;5069753;28;20035;-73
2022/04/28 02:03:59;;;;;;;1.73;1.30;;;;;;;;;;5070268;28;20035;-72
2022/04/28 02:06:25;;;;;;;2.15;1.40;;;;;;;;;;5069232;28;20469;-71
2022/04/28 02:08:51;;;;;;;2.97;1.55;;;;;;;;;;5070370;28;20020;-67
2022/04/28 02:11:16;;;;;;;3.30;1.48;;;;;;;;;;5067741;28;20043;-71
2022/04/28 02:13:42;;;;;;;2.95;1.58;;;;;;;;;;5074744;28;20024;-67
2022/04/28 02:16:07;;;;;;;0.90;0.77;;;;;;;;;;5080950;28;20039;-67
2022/04/28 02:18:33;;;;;;;1.08;0.88;;;;;;;;;;5080918;28;20039;-68
2022/04/28 02:20:58;;;;;;;1.77;1.20;;;;;;;;;;5082293;28;20057;-66
2022/04/28 02:23:23;;;;;;;2.80;1.80;;;;;;;;;;5081242;28;20328;-67
2022/04/28 02:25:49;;;;;;;1.92;1.73;;;;;;;;;;5081138;28;20454;-69
2022/04/28 02:28:14;;;;;;;3.67;2.20;;;;;;;;;;5074971;28;20027;-69
2022/04/28 02:30:40;;;;;;;4.60;2.70;;;;;;;;;;5068938;28;20028;-69
2022/04/28 02:33:11;;;;;;;1.10;0.80;;;;;;;;;;5070135;28;20112;-68
2022/04/28 02:35:39;;;;;;;1.40;1.27;;;;;;;;;;5069394;28;20028;-67
2022/04/28 02:38:05;;;;;;;1.33;1.23;;;;;;;;;;5070538;28;20024;-66
2022/04/28 02:40:31;;;;;;;1.27;0.90;;;;;;;;;;5073215;28;20016;-71
2022/04/28 02:42:56;;;;;;;1.23;1.10;;;;;;;;;;5080457;28;20016;-68
2022/04/28 02:45:21;;;;;;;2.38;1.50;;;;;;;;;;5081430;28;20320;-68
2022/04/28 02:47:47;;;;;;;1.35;1.17;;;;;;;;;;5082027;28;20020;-66
2022/04/28 02:50:12;;;;;;;2.50;1.42;;;;;;;;;;5080653;28;20038;-68
2022/04/28 02:52:40;;;;;;;2.25;1.30;;;;;;;;;;5081771;28;20027;-68
2022/04/28 02:55:09;;;;;;;2.67;1.55;;;;;;;;;;5081698;28;20043;-68
2022/04/28 02:57:35;;;;;;;1.73;1.20;;;;;;;;;;5077419;28;20034;-72
2022/04/28 03:00:04;;;;;;;4.57;2.08;;;;;;;;;;5067432;28;20366;-72
2022/04/28 03:02:30;;;;;;;2.95;1.70;;;;;;;;;;5069276;28;20031;-66
2022/04/28 03:04:55;;;;;;;2.33;1.70;;;;;;;;;;5049475;28;20370;-67
2022/04/28 03:12:48;;;;;;;1.80;1.08;;;;;;;;;;5047473;28;24210;-68
2022/04/28 03:15:14;;;;;;;0.98;0.90;;;;;;;;;;5048851;28;20036;-68
2022/04/28 03:17:39;;;;;;;1.10;1.10;;;;;;;;;;5049152;28;20028;-70
2022/04/28 03:20:04;;;;;;;1.25;1.13;;;;;;;;;;5049583;28;20589;-71
2022/04/28 03:22:30;;;;;;;2.53;1.83;;;;;;;;;;5049133;28;20024;-71
2022/04/28 03:24:55;;;;;;;1.83;1.67;;;;;;;;;;5048795;28;20438;-73
2022/04/28 03:27:21;;;;;;;5.68;2.00;;;;;;;;;;5048882;28;20047;-72
2022/04/28 03:29:46;;;;;;;5.72;2.58;;;;;;;;;;5047883;28;20071;-67
2022/04/28 03:32:11;;;;;;;2.22;2.03;;;;;;;;;;5049409;28;20039;-70
2022/04/28 03:34:36;;;;;;;2.72;2.40;;;;;;;;;;5049038;28;20033;-67
2022/04/28 03:37:02;;;;;;;3.88;2.95;;;;;;;;;;5048095;28;20032;-72
2022/04/28 03:39:29;;;;;;;3.45;3.15;;;;;;;;;;5046331;28;20040;-67
2022/04/28 03:41:54;;;;;;;6.70;3.92;;;;;;;;;;5048152;28;20028;-68
2022/04/28 03:44:20;;;;;;;3.30;3.00;;;;;;;;;;5048675;28;20024;-68
2022/04/28 03:46:45;;;;;;;4.57;4.13;;;;;;;;;;5048200;28;20025;-68
2022/04/28 03:49:11;;;;;;;7.00;5.10;;;;;;;;;;5047960;28;20171;-67
2022/04/28 03:51:36;;;;;;;5.85;5.25;;;;;;;;;;5048608;28;20032;-66
2022/04/28 03:54:01;;;;;;;5.18;4.68;;;;;;;;;;5047320;28;20068;-67
2022/04/28 03:56:31;;;;;;;6.40;5.40;;;;;;;;;;5048196;28;20051;-66
2022/04/28 03:59:00;;;;;;;6.78;6.00;;;;;;;;;;5047963;28;20846;-68
2022/04/28 04:01:25;;;;;;;6.25;5.20;;;;;;;;;;5048384;28;20094;-68
2022/04/28 04:03:51;;;;;;;7.47;6.03;;;;;;;;;;5048541;28;20021;-70
2022/04/28 04:06:16;;;;;;;5.30;4.80;;;;;;;;;;5066510;28;20075;-68
2022/04/28 04:08:41;;;;;;;5.63;5.13;;;;;;;;;;5067393;28;20034;-70
2022/04/28 04:11:08;;;;;;;7.10;6.40;;;;;;;;;;5066960;28;20023;-70
2022/04/28 04:13:34;;;;;;;7.55;6.80;;;;;;;;;;5069748;28;20040;-68
2022/04/28 04:15:59;;;;;;;8.35;7.55;;;;;;;;;;5071730;28;20040;-66
2022/04/28 04:18:25;;;;;;;9.60;8.65;;;;;;;;;;5067364;28;20854;-68
2022/04/28 04:20:50;;;;;;;9.32;8.32;;;;;;;;;;5067286;28;20336;-66
2022/04/28 04:23:16;;;;;;;11.52;9.82;;;;;;;;;;5074648;28;20093;-66
2022/04/28 04:25:41;;;;;;;15.43;10.93;;;;;;;;;;5079458;28;20028;-68
2022/04/28 04:28:06;;;;;;;14.10;11.73;;;;;;;;;;5079411;28;20026;-69
2022/04/28 04:33:15;;;;;;;23.55;16.25;;;;;;;;;;5079721;28;20050;-68
2022/04/28 04:35:41;;;;;;;19.95;14.90;;;;;;;;;;5080283;28;20044;-68
2022/04/28 04:38:06;;;;;;;16.42;13.00;;;;;;;;;;5078297;28;20402;-70
2022/04/28 04:40:31;;;;;;;16.13;12.95;;;;;;;;;;5078007;28;20402;-69
2022/04/28 04:42:57;;;;;;;12.15;10.88;;;;;;;;;;5078922;28;20377;-72
2022/04/28 04:45:23;;;;;;;12.90;11.60;;;;;;;;;;5069739;28;20028;-72
2022/04/28 04:47:49;;;;;;;11.60;10.40;;;;;;;;;;5060629;28;20399;-68
2022/04/28 04:50:14;;;;;;;13.40;11.20;;;;;;;;;;5072408;28;20085;-68
2022/04/28 04:52:39;;;;;;;12.85;11.38;;;;;;;;;;5075288;28;20020;-67
2022/04/28 04:55:05;;;;;;;11.68;9.82;;;;;;;;;;5060197;28;20059;-69
2022/04/28 04:57:31;;;;;;;12.88;10.73;;;;;;;;;;5079561;28;20032;-67
2022/04/28 04:59:56;;;;;;;11.70;10.48;;;;;;;;;;5079244;28;20024;-70
2022/04/28 05:02:23;;;;;;;10.98;9.88;;;;;;;;;;5078242;28;20125;-68
2022/04/28 05:04:48;;;;;;;11.70;9.70;;;;;;;;;;5079008;28;20131;-69
2022/04/28 05:07:14;;;;;;;9.82;8.82;;;;;;;;;;5078552;28;20103;-69
2022/04/28 05:09:39;;;;;;;9.88;8.73;;;;;;;;;;5078907;28;20081;-68
2022/04/28 05:12:05;;;;;;;13.85;11.50;;;;;;;;;;5079205;28;20050;-70
2022/04/28 05:14:31;;;;;;;12.13;10.63;;;;;;;;;;5079618;28;20115;-71
2022/04/28 05:16:57;;;;;;;13.90;12.35;;;;;;;;;;5079627;28;20226;-69
2022/04/28 05:19:23;;;;;;;13.20;11.27;;;;;;;;;;5079262;28;20130;-69
2022/04/28 05:21:48;;;;;;;13.77;11.70;;;;;;;;;;5079801;28;20024;-68
2022/04/28 05:24:14;;;;;;;11.68;10.48;;;;;;;;;;5078965;28;20063;-70
2022/04/28 05:26:39;;;;;;;12.98;11.40;;;;;;;;;;5079499;28;20109;-68
2022/04/28 05:29:04;;;;;;;14.48;11.75;;;;;;;;;;5078750;28;20051;-69
2022/04/28 05:31:29;;;;;;;14.00;11.60;;;;;;;;;;5080190;28;20031;-68
2022/04/28 05:33:55;;;;;;;13.30;11.90;;;;;;;;;;5080144;28;20050;-70
2022/04/28 05:36:21;;;;;;;13.48;12.00;;;;;;;;;;5082356;28;20024;-72
2022/04/28 05:38:46;;;;;;;14.50;12.30;;;;;;;;;;5082560;28;20025;-72
2022/04/28 05:41:12;;;;;;;13.02;11.20;;;;;;;;;;5083132;28;20073;-69
2022/04/28 05:46:21;;;;;;;13.15;11.75;;;;;;;;;;5083425;28;20437;-70
2022/04/28 05:48:46;;;;;;;10.73;9.65;;;;;;;;;;5082574;28;20020;-71
2022/04/28 05:51:12;;;;;;;12.05;10.73;;;;;;;;;;5083403;28;20470;-68
2022/04/28 05:53:38;;;;;;;13.30;11.48;;;;;;;;;;5081560;28;20032;-72
2022/04/28 05:56:03;;;;;;;13.05;11.10;;;;;;;;;;5082653;28;20038;-69
2022/04/28 05:58:29;;;;;;;12.38;11.02;;;;;;;;;;5083268;28;20035;-69
2022/04/28 06:00:54;;;;;;;13.85;11.20;;;;;;;;;;5082246;28;20020;-68
2022/04/28 06:03:19;;;;;;;13.60;11.10;;;;;;;;;;5083168;28;20020;-68
2022/04/28 06:05:45;;;;;;;16.17;13.00;;;;;;;;;;5080641;28;20044;-68
2022/04/28 06:08:10;;;;;;;17.65;12.35;;;;;;;;;;5082182;28;20024;-68
2022/04/28 06:10:35;;;;;;;18.00;13.20;;;;;;;;;;5082860;28;20130;-68
2022/04/28 06:13:00;;;;;;;17.10;12.13;;;;;;;;;;5081999;28;20424;-69
2022/04/28 06:15:26;;;;;;;37.08;22.55;;;;;;;;;;5083281;28;20027;-67
2022/04/28 06:17:51;;;;;;;17.15;13.60;;;;;;;;;;5083316;28;20028;-73
2022/04/28 06:20:16;;;;;;;13.25;11.57;;;;;;;;;;5082321;28;20028;-69
2022/04/28 06:22:42;;;;;;;16.98;14.43;;;;;;;;;;5065402;28;20039;-70
2022/04/28 06:25:07;;;;;;;17.23;14.23;;;;;;;;;;5082603;28;20031;-72
2022/04/28 06:27:34;;;;;;;20.02;15.57;;;;;;;;;;5082503;28;20120;-69
2022/04/28 06:29:59;;;;;;;15.52;13.30;;;;;;;;;;5082463;28;20020;-68
2022/04/28 06:32:25;;;;;;;17.85;14.25;;;;;;;;;;5082419;28;20419;-70
2022/04/28 06:34:50;;;;;;;19.05;14.45;;;;;;;;;;5082450;28;20081;-69
2022/04/28 06:37:15;;;;;;;13.65;11.95;;;;;;;;;;5082974;28;20103;-70
2022/04/28 06:39:41;;;;;;;16.65;12.43;;;;;;;;;;5082808;28;20052;-70
2022/04/28 06:42:07;;;;;;;15.95;13.45;;;;;;;;;;5083397;28;20296;-73
2022/04/28 06:44:32;;;;;;;14.77;11.48;;;;;;;;;;5081824;28;20454;-72
2022/04/28 06:46:58;;;;;;;15.20;11.52;;;;;;;;;;5080609;28;20015;-70
2022/04/28 06:49:23;;;;;;;11.23;10.05;;;;;;;;;;5083166;28;20035;-71
2022/04/28 06:51:48;;;;;;;14.18;11.25;;;;;;;;;;5064368;28;20150;-69
2022/04/28 06:54:14;;;;;;;11.43;9.70;;;;;;;;;;5082305;28;20038;-70
2022/04/28 06:56:39;;;;;;;12.60;10.13;;;;;;;;;;5081836;28;20024;-69
2022/04/28 06:59:05;;;;;;;14.15;10.00;;;;;;;;;;5081160;28;20055;-71
2022/04/28 07:01:30;;;;;;;20.25;13.88;;;;;;;;;;5082116;28;20028;-73
2022/04/28 07:03:56;;;;;;;12.73;11.13;;;;;;;;;;5081617;28;20028;-72
2022/04/28 07:06:21;;;;;;;14.10;11.90;;;;;;;;;;5081102;28;20109;-69
2022/04/28 07:08:46;;;;;;;13.35;10.95;;;;;;;;;;5081568;28;20031;-70
2022/04/28 07:11:12;;;;;;;23.80;19.88;;;;;;;;;;5080808;28;20046;-69
2022/04/28 07:13:37;;;;;;;22.25;18.15;;;;;;;;;;5080925;28;20024;-68
2022/04/28 07:16:03;;;;;;;12.15;9.50;;;;;;;;;;5080576;28;20064;-70
2022/04/28 07:18:28;;;;;;;12.00;9.70;;;;;;;;;;5082122;28;20016;-68
2022/04/28 07:20:54;;;;;;;13.43;10.70;;;;;;;;;;5080559;28;20039;-69
2022/04/28 07:23:19;;;;;;;13.88;9.63;;;;;;;;;;5081474;28;20031;-68
2022/04/28 07:25:44;;;;;;;12.00;10.65;;;;;;;;;;5081699;28;20114;-70
2022/04/28 07:28:10;;;;;;;13.93;11.07;;;;;;;;;;5080819;28;20092;-69
2022/04/28 07:30:35;;;;;;;14.05;10.80;;;;;;;;;;5081579;28;20028;-69
2022/04/28 07:33:00;;;;;;;10.85;8.98;;;;;;;;;;5081903;28;20137;-71
2022/04/28 07:35:26;;;;;;;10.77;9.10;;;;;;;;;;5080944;28;20450;-70
2022/04/28 07:37:51;;;;;;;10.50;8.90;;;;;;;;;;5081419;28;20036;-71
2022/04/28 07:40:17;;;;;;;12.88;9.13;;;;;;;;;;5079635;28;20097;-69
2022/04/28 07:42:42;;;;;;;12.50;9.90;;;;;;;;;;5081920;28;20024;-69
2022/04/28 07:45:08;;;;;;;12.02;8.93;;;;;;;;;;5082039;28;21246;-71
2022/04/28 07:47:33;;;;;;;9.98;8.40;;;;;;;;;;5081444;28;20028;-72
2022/04/28 07:49:58;;;;;;;11.80;9.00;;;;;;;;;;5081584;28;20478;-69
2022/04/28 07:52:24;;;;;;;11.70;9.15;;;;;;;;;;5081136;28;20802;-73
2022/04/28 07:54:49;;;;;;;8.65;7.47;;;;;;;;;;5080809;28;20024;-70
2022/04/28 07:57:15;;;;;;;11.75;9.23;;;;;;;;;;5080165;28;20097;-72
2022/04/28 07:59:40;;;;;;;8.27;7.35;;;;;;;;;;5080539;28;20020;-70
2022/04/28 08:02:08;;;;;;;10.07;7.28;;;;;;;;;;5079763;28;20335;-69
2022/04/28 08:04:33;;;;;;;8.45;7.30;;;;;;;;;;5079671;28;20142;-74
2022/04/28 08:06:59;;;;;;;9.02;7.85;;;;;;;;;;5081638;28;20510;-74
2022/04/28 08:09:24;;;;;;;10.32;8.45;;;;;;;;;;5081270;28;20467;-71
2022/04/28 08:11:50;;;;;;;9.43;7.80;;;;;;;;;;5080499;28;20193;-71
2022/04/28 08:14:15;;;;;;;8.88;7.18;;;;;;;;;;5062867;28;20035;-70
2022/04/28 08:16:41;;;;;;;7.85;7.05;;;;;;;;;;5080173;28;20047;-70
2022/04/28 08:19:06;;;;;;;9.02;8.05;;;;;;;;;;5080844;28;20324;-70
2022/04/28 08:21:32;;;;;;;8.60;7.70;;;;;;;;;;5080266;28;20023;-71
2022/04/28 08:23:57;;;;;;;9.50;8.32;;;;;;;;;;5081111;28;20028;-68
2022/04/28 08:26:23;;;;;;;8.18;6.88;;;;;;;;;;5079843;28;20036;-70
2022/04/28 08:28:48;;;;;;;9.68;8.68;;;;;;;;;;5080643;28;20114;-68
2022/04/28 08:31:14;;;;;;;10.05;8.70;;;;;;;;;;5080168;28;20029;-71
2022/04/28 08:33:39;;;;;;;14.07;10.00;;;;;;;;;;5081306;28;20385;-69
2022/04/28 08:36:04;;;;;;;12.68;10.02;;;;;;;;;;5079067;28;20031;-69
2022/04/28 08:38:31;;;;;;;8.55;7.47;;;;;;;;;;5080426;28;20469;-69
2022/04/28 08:41:01;;;;;;;10.60;8.60;;;;;;;;;;5081215;28;20047;-69
2022/04/28 08:43:28;;;;;;;9.23;7.55;;;;;;;;;;5081579;28;20020;-70
2022/04/28 08:48:44;;;;;;;8.85;7.97;;;;;;;;;;5080642;28;20035;-69
2022/04/28 08:51:10;;;;;;;9.52;8.13;;;;;;;;;;5080439;28;20020;-71
2022/04/28 08:53:37;;;;;;;10.40;7.90;;;;;;;;;;5080248;28;20351;-71
2022/04/28 08:56:02;;;;;;;10.07;7.18;;;;;;;;;;5079971;28;20028;-70
2022/04/28 08:58:27;;;;;;;15.98;10.88;;;;;;;;;;5081326;28;20717;-70
2022/04/28 09:00:53;;;;;;;17.15;10.93;;;;;;;;;;5081009;28;20020;-74
2022/04/28 09:03:19;;;;;;;12.82;8.23;;;;;;;;;;5081205;28;20133;-69
2022/04/28 09:05:45;;;;;;;7.97;7.15;;;;;;;;;;5080755;28;20059;-70
2022/04/28 09:08:11;;;;;;;7.65;6.85;;;;;;;;;;5080620;28;20015;-72
2022/04/28 09:10:36;;;;;;;8.40;5.93;;;;;;;;;;5066947;28;20031;-71
2022/04/28 09:15:52;;;;;;;6.82;6.18;;;;;;;;;;5084365;28;20139;-69
2022/04/28 09:18:21;;;;;;;7.07;6.38;;;;;;;;;;5083907;28;20043;-69
2022/04/28 09:20:47;;;;;;;;;;;;;;;;;;5084794;28;20069;-69
2022/04/28 09:23:13;;;;;;;8.67;7.10;;;;;;;;;;5084233;28;19920;-68
2022/04/28 09:25:42;;;;;;;8.15;6.72;;;;;;;;;;5085306;28;20139;-69
2022/04/28 09:28:11;;;;;;;8.55;6.50;;;;;;;;;;5066240;28;20455;-74
2022/04/28 09:30:48;;;;;;;6.65;6.05;;;;;;;;;;5083938;28;20032;-71
2022/04/28 09:33:14;;;;;;;7.10;6.43;;;;;;;;;;5082541;28;20092;-70
2022/04/28 09:35:50;;;;;;;7.10;6.40;;;;;;;;;;5083896;28;20036;-73
2022/04/28 09:38:16;;;;;;;8.88;6.90;;;;;;;;;;5083673;28;20120;-72
2022/04/28 09:43:30;;;;;;;7.25;5.93;;;;;;;;;;5083180;28;20462;-70
2022/04/28 09:45:55;;;;;;;7.63;6.88;;;;;;;;;;5083550;28;20020;-69
2022/04/28 09:48:21;;;;;;;7.82;7.03;;;;;;;;;;5083673;28;20059;-72
2022/04/28 09:50:47;;;;;;;11.85;7.65;;;;;;;;;;5084274;28;20043;-70
2022/04/28 09:53:15;;;;;;;9.40;7.40;;;;;;;;;;5084591;28;20028;-70
2022/04/28 09:55:42;;;;;;;8.02;7.22;;;;;;;;;;5083010;28;20441;-72
2022/04/28 09:58:09;;;;;;;7.00;6.30;;;;;;;;;;5084859;28;20078;-70
2022/04/28 10:00:34;;;;;;;8.18;7.28;;;;;;;;;;5084153;28;20028;-70
2022/04/28 10:03:02;;;;;;;9.70;8.18;;;;;;;;;;5085058;28;20673;-69
2022/04/28 10:05:28;;;;;;;13.68;7.78;;;;;;;;;;5084813;28;20379;-74
2022/04/28 10:07:53;;;;;;;8.88;7.07;;;;;;;;;;5085236;28;20622;-70
2022/04/28 10:10:19;;;;;;;8.93;8.02;;;;;;;;;;5084468;28;20035;-70
2022/04/28 10:12:47;;;;;;;8.43;7.63;;;;;;;;;;5084990;28;20028;-69
2022/04/28 10:15:14;;;;;;;8.32;6.95;;;;;;;;;;5083733;28;20446;-71
2022/04/28 10:17:39;;;;;;;9.15;8.00;;;;;;;;;;5083306;28;20408;-71
2022/04/28 10:20:09;;;;;;;8.52;7.63;;;;;;;;;;5083367;28;20031;-72
2022/04/28 10:22:35;;;;;;;8.43;7.72;;;;;;;;;;5082888;28;20024;-70
2022/04/28 10:33:22;;;;;;;9.80;8.18;;;;;;;;;;5084124;28;20043;-72
2022/04/28 10:35:50;;;;;;;8.75;7.85;;;;;;;;;;5082727;28;20036;-72
2022/04/28 10:38:23;;;;;;;10.13;7.47;;;;;;;;;;5065874;28;20074;-71
2022/04/28 10:40:56;;;;;;;8.07;7.28;;;;;;;;;;5083566;28;20048;-71
2022/04/28 10:43:37;;;;;;;8.95;7.90;;;;;;;;;;5081190;28;20020;-74
2022/04/28 10:46:09;;;;;;;9.40;7.75;;;;;;;;;;5083212;28;20078;-71
2022/04/28 10:48:35;;;;;;;8.60;7.68;;;;;;;;;;5082577;28;20095;-72
2022/04/28 10:51:04;;;;;;;8.73;7.85;;;;;;;;;;5083548;28;20019;-71
2022/04/28 10:53:29;;;;;;;7.68;6.90;;;;;;;;;;5081340;28;20082;-70
2022/04/28 10:55:55;;;;;;;8.05;7.20;;;;;;;;;;5081452;28;20446;-70
2022/04/28 10:58:24;;;;;;;9.52;7.60;;;;;;;;;;5082580;28;20167;-70
2022/04/28 11:00:53;;;;;;;8.75;7.05;;;;;;;;;;5082559;28;20035;-70
2022/04/28 11:03:37;;;;;;;9.63;7.80;;;;;;;;;;5082397;28;20384;-70
2022/04/28 11:06:10;;;;;;;9.52;7.88;;;;;;;;;;5082489;28;20063;-70
2022/04/28 11:08:37;;;;;;;9.43;7.90;;;;;;;;;;5082965;28;20461;-74
2022/04/28 11:11:03;;;;;;;7.32;6.63;;;;;;;;;;5081936;28;20028;-70
2022/04/28 11:13:29;;;;;;;6.35;5.75;;;;;;;;;;5082375;28;20067;-71
2022/04/28 11:15:55;;;;;;;6.32;5.72;;;;;;;;;;5082389;28;20027;-74
2022/04/28 11:18:21;;;;;;;7.53;6.82;;;;;;;;;;5082644;28;20081;-71
2022/04/28 11:20:46;;;;;;;7.60;6.75;;;;;;;;;;5082542;28;20025;-73
2022/04/28 11:23:11;;;;;;;7.05;6.35;;;;;;;;;;5082430;28;20077;-72
2022/04/28 11:25:36;;;;;;;7.47;6.68;;;;;;;;;;5082414;28;20077;-71
2022/04/28 11:28:02;;;;;;;8.55;7.45;;;;;;;;;;5081832;28;20967;-71
2022/04/28 11:30:27;;;;;;;7.10;6.40;;;;;;;;;;5081553;28;20721;-71
2022/04/28 11:32:56;;;;;;;6.88;6.13;;;;;;;;;;5082369;28;20285;-70
2022/04/28 11:35:22;;;;;;;6.57;5.78;;;;;;;;;;5081417;28;20056;-70
2022/04/28 11:37:53;;;;;;;6.82;6.20;;;;;;;;;;5082762;28;21163;-71
2022/04/28 11:40:18;;;;;;;8.35;6.07;;;;;;;;;;5082794;28;20032;-72
2022/04/28 11:42:45;;;;;;;7.25;5.78;;;;;;;;;;5081573;28;20039;-70
2022/04/28 11:45:11;;;;;;;5.60;5.10;;;;;;;;;;5081707;28;20064;-70
2022/04/28 11:47:44;;;;;;;6.47;5.72;;;;;;;;;;5080361;28;20064;-72
2022/04/28 11:50:17;;;;;;;5.10;4.53;;;;;;;;;;5080692;28;20473;-70
2022/04/28 11:52:42;;;;;;;5.43;4.93;;;;;;;;;;5083044;28;20043;-71
2022/04/28 11:55:08;;;;;;;8.82;7.93;;;;;;;;;;5081242;28;20059;-71
2022/04/28 11:57:37;;;;;;;6.03;5.40;;;;;;;;;;5081568;28;20426;-71
2022/04/28 12:00:05;;;;;;;4.90;4.40;;;;;;;;;;5082340;28;20081;-71
2022/04/28 12:02:35;;;;;;;7.60;5.30;;;;;;;;;;5081621;28;20020;-69
2022/04/28 12:05:01;;;;;;;7.18;6.47;;;;;;;;;;5081134;28;20044;-70
2022/04/28 12:07:36;;;;;;;7.00;6.18;;;;;;;;;;5081135;28;20135;-70
2022/04/28 12:15:31;;;;;;;8.98;6.32;;;;;;;;;;5080190;28;20039;-71
2022/04/28 12:21:02;;;;;;;7.95;6.13;;;;;;;;;;5079836;28;20470;-73
2022/04/28 12:23:32;;;;;;;6.57;5.85;;;;;;;;;;5063003;28;20384;-71
2022/04/28 12:25:59;;;;;;;7.10;6.40;;;;;;;;;;5080773;28;20028;-73
2022/04/28 12:28:34;;;;;;;5.93;5.18;;;;;;;;;;5081262;28;20088;-71
2022/04/28 12:31:02;;;;;;;6.55;4.97;;;;;;;;;;5081570;28;20123;-71
2022/04/28 12:33:28;;;;;;;7.93;6.75;;;;;;;;;;5080690;28;20355;-72
2022/04/28 12:35:57;;;;;;;6.70;5.20;;;;;;;;;;5080987;28;20032;-72
2022/04/28 12:38:26;;;;;;;6.35;5.60;;;;;;;;;;5080245;28;20031;-73
2022/04/28 12:40:52;;;;;;;5.60;5.03;;;;;;;;;;5080178;28;20038;-70
2022/04/28 12:43:37;;;;;;;8.80;5.82;;;;;;;;;;5080347;28;20028;-71
2022/04/28 12:46:03;;;;;;;6.55;5.63;;;;;;;;;;5080684;28;20032;-71
2022/04/28 12:48:32;;;;;;;5.55;4.82;;;;;;;;;;5081268;28;20761;-72
2022/04/28 12:51:07;;;;;;;6.50;5.20;;;;;;;;;;5080683;28;20097;-75
2022/04/28 12:53:33;;;;;;;5.57;4.57;;;;;;;;;;5080617;28;20104;-72
2022/04/28 12:56:07;;;;;;;7.15;6.45;;;;;;;;;;5079765;28;20436;-71
2022/04/28 12:58:35;;;;;;;7.22;5.85;;;;;;;;;;5078862;28;20028;-70
2022/04/28 13:01:00;;;;;;;5.88;5.00;;;;;;;;;;5080348;28;20030;-72
2022/04/28 13:03:28;;;;;;;5.57;4.60;;;;;;;;;;5080748;28;20023;-70
2022/04/28 13:05:53;;;;;;;6.85;5.20;;;;;;;;;;5080526;28;20052;-70
2022/04/28 13:08:18;;;;;;;5.68;5.10;;;;;;;;;;5080272;28;20351;-71
2022/04/28 13:10:44;;;;;;;5.75;5.25;;;;;;;;;;5081339;28;20063;-70
2022/04/28 13:13:09;;;;;;;6.60;5.90;;;;;;;;;;5080403;28;20161;-71
2022/04/28 13:15:34;;;;;;;6.22;5.63;;;;;;;;;;5081296;28;20039;-70
2022/04/28 13:17:59;;;;;;;6.55;5.07;;;;;;;;;;5081360;28;20066;-71
2022/04/28 13:20:25;;;;;;;6.03;5.30;;;;;;;;;;5080688;28;20028;-71
2022/04/28 13:22:50;;;;;;;6.57;5.65;;;;;;;;;;5080203;28;20484;-74
2022/04/28 13:25:16;;;;;;;5.97;5.32;;;;;;;;;;5081146;28;20032;-70
2022/04/28 13:27:42;;;;;;;6.13;5.45;;;;;;;;;;5080061;28;20039;-70
2022/04/28 13:30:07;;;;;;;6.72;5.68;;;;;;;;;;5081072;28;20016;-70
2022/04/28 13:32:33;;;;;;;5.47;4.50;;;;;;;;;;5081293;28;20080;-71
2022/04/28 13:34:58;;;;;;;5.45;4.90;;;;;;;;;;5079932;28;20051;-70
2022/04/28 13:37:23;;;;;;;6.35;5.45;;;;;;;;;;5079932;28;20028;-70
2022/04/28 13:39:49;;;;;;;5.15;4.65;;;;;;;;;;5080840;28;20032;-71
2022/04/28 13:42:14;;;;;;;5.38;4.88;;;;;;;;;;5081141;28;20016;-73
2022/04/28 13:44:40;;;;;;;5.40;4.90;;;;;;;;;;5080533;28;20613;-73
2022/04/28 13:47:07;;;;;;;5.72;5.22;;;;;;;;;;5078806;28;20017;-70
2022/04/28 13:49:32;;;;;;;4.57;4.18;;;;;;;;;;5075185;28;20111;-70
2022/04/28 13:51:58;;;;;;;4.68;3.85;;;;;;;;;;5065737;28;20169;-71
2022/04/28 13:54:23;;;;;;;8.15;5.57;;;;;;;;;;5066477;28;20020;-70
2022/04/28 13:56:49;;;;;;;6.07;5.03;;;;;;;;;;5073910;28;21243;-69
2022/04/28 13:59:14;;;;;;;5.70;5.05;;;;;;;;;;5082796;28;20024;-72
2022/04/28 14:01:40;;;;;;;3.95;3.55;;;;;;;;;;5083700;28;20030;-70
2022/04/28 14:04:06;;;;;;;4.30;3.90;;;;;;;;;;5075759;28;20873;-70
2022/04/28 14:06:31;;;;;;;4.80;4.18;;;;;;;;;;5071805;28;20044;-70
2022/04/28 14:08:57;;;;;;;5.45;4.35;;;;;;;;;;5083395;28;20296;-70
2022/04/28 14:11:22;;;;;;;9.77;4.80;;;;;;;;;;5082345;28;20035;-69
2022/04/28 14:13:47;;;;;;;5.90;4.90;;;;;;;;;;5079352;28;20373;-73
2022/04/28 14:16:13;;;;;;;6.28;5.20;;;;;;;;;;5072439;28;20063;-70
2022/04/28 14:18:38;;;;;;;4.85;4.20;;;;;;;;;;5079008;28;20031;-73
2022/04/28 14:21:03;;;;;;;5.63;5.03;;;;;;;;;;5069759;28;20059;-72
2022/04/28 14:23:29;;;;;;;5.57;4.55;;;;;;;;;;5072685;28;20066;-69
2022/04/28 14:25:55;;;;;;;5.53;5.03;;;;;;;;;;5069994;28;20039;-68
2022/04/28 14:28:20;;;;;;;5.63;5.13;;;;;;;;;;5070296;28;20505;-69
2022/04/28 14:30:46;;;;;;;7.03;6.20;;;;;;;;;;5069213;28;20103;-71
2022/04/28 14:33:11;;;;;;;7.55;6.85;;;;;;;;;;5069403;28;20034;-76
2022/04/28 14:35:37;;;;;;;7.82;7.05;;;;;;;;;;5072271;28;20040;-70
2022/04/28 14:38:02;;;;;;;8.45;7.65;;;;;;;;;;5067462;28;20028;-72
2022/04/28 14:40:28;;;;;;;9.10;8.15;;;;;;;;;;5079740;28;20032;-68
2022/04/28 14:42:53;;;;;;;8.38;7.57;;;;;;;;;;5054340;28;20031;-70
2022/04/28 14:45:19;;;;;;;8.25;7.47;;;;;;;;;;5080156;28;20032;-70
2022/04/28 14:47:44;;;;;;;8.05;7.35;;;;;;;;;;5082122;28;20336;-70
2022/04/28 14:52:54;;;;;;;9.93;8.93;;;;;;;;;;5072756;28;20160;-71
2022/04/28 14:55:20;;;;;;;9.00;8.05;;;;;;;;;;5074841;28;20156;-71
2022/04/28 14:57:47;;;;;;;9.48;7.03;;;;;;;;;;5080733;28;20020;-71
2022/04/28 15:00:15;;;;;;;10.82;9.70;;;;;;;;;;5082150;28;20028;-72
2022/04/28 15:02:40;;;;;;;12.02;10.10;;;;;;;;;;5083338;28;20412;-74
2022/04/28 15:05:06;;;;;;;17.00;12.80;;;;;;;;;;5081541;28;20076;-70
2022/04/28 15:07:31;;;;;;;13.82;10.40;;;;;;;;;;5082363;28;20020;-73
2022/04/28 15:09:58;;;;;;;11.85;10.52;;;;;;;;;;5081781;28;20055;-69
2022/04/28 15:12:23;;;;;;;17.88;15.05;;;;;;;;;;5081137;28;20119;-69
2022/04/28 15:14:52;;;;;;;15.18;13.15;;;;;;;;;;5081971;28;20404;-69
2022/04/28 15:17:17;;;;;;;15.07;13.05;;;;;;;;;;5067078;28;20332;-73
2022/04/28 15:19:42;;;;;;;15.85;14.15;;;;;;;;;;5081701;28;20027;-70